Time;durP1;ratioP1;P1;durP2;ratioP2;P2;SDS_P1;SDS_P2;PMS_P1;PMS_P2;Temp;Humidity;BMP_temperature;BMP_pressure;BME280_temperature;BME280_humidity;BME280_pressure;Samples;Min_cycle;Max_cycle;Signal;HPM_P1;HPM_P2
2022/02/06 00:00:30;;;;;;;28.07;13.60;;;;;;;1.28;69.67;100791.92;126325;1099;104149;-79
2022/02/06 00:03:13;;;;;;;28.30;13.47;;;;;;;1.27;69.51;100781.47;126246;1099;104150;-80
2022/02/06 00:05:47;;;;;;;29.40;13.45;;;;;;;1.25;70.13;100787.41;125406;1099;104277;-78
2022/02/06 00:08:18;;;;;;;27.13;13.27;;;;;;;1.24;70.33;100803.69;126304;1099;104283;-79
2022/02/06 00:10:50;;;;;;;30.37;14.87;;;;;;;1.23;70.60;100794.16;126288;1099;104277;-79
2022/02/06 00:13:21;;;;;;;30.10;14.10;;;;;;;1.21;70.96;100792.22;126315;1099;104986;-79
2022/02/06 00:15:53;;;;;;;28.63;13.63;;;;;;;1.19;70.64;100804.13;126179;1099;104265;-78
2022/02/06 00:18:24;;;;;;;29.73;13.70;;;;;;;1.17;70.70;100803.09;126265;1099;104737;-78
2022/02/06 00:20:58;;;;;;;29.50;13.90;;;;;;;1.16;70.44;100799.61;126220;1099;104169;-78
2022/02/06 00:23:31;;;;;;;31.00;13.97;;;;;;;1.15;70.46;100790.05;126214;1099;104249;-78
2022/02/06 00:26:08;;;;;;;27.13;14.27;;;;;;;1.14;70.38;100787.34;126178;1099;104236;-78
2022/02/06 00:28:44;;;;;;;27.57;12.87;;;;;;;1.13;70.30;100790.73;126291;1099;104258;-78
2022/02/06 00:31:22;;;;;;;26.87;13.87;;;;;;;1.13;70.67;100798.48;126325;1099;104181;-79
2022/02/06 00:34:26;;;;;;;32.37;13.03;;;;;;;1.14;70.86;100800.27;126317;1099;104230;-79
2022/02/06 00:39:37;;;;;;;28.67;12.80;;;;;;;1.15;70.51;100802.97;126346;1099;104153;-79
2022/02/06 00:42:11;;;;;;;26.87;13.00;;;;;;;1.16;70.86;100798.72;126296;1099;104223;-79
2022/02/06 00:44:44;;;;;;;26.35;13.03;;;;;;;1.17;70.87;100792.75;126281;1099;104166;-79
2022/02/06 00:47:15;;;;;;;25.10;12.27;;;;;;;1.18;70.67;100799.73;126336;1099;117740;-79
2022/02/06 00:49:47;;;;;;;22.47;11.27;;;;;;;1.18;70.61;100787.70;126264;1099;104685;-79
2022/02/06 00:52:25;;;;;;;27.33;11.70;;;;;;;1.22;70.35;100794.03;125382;1099;104181;-79
2022/02/06 00:54:57;;;;;;;25.50;11.83;;;;;;;1.25;70.92;100792.58;125356;1099;104226;-78
2022/02/06 00:57:29;;;;;;;25.90;10.60;;;;;;;1.28;71.00;100791.92;125350;1099;104203;-79
2022/02/06 01:00:00;;;;;;;24.37;10.97;;;;;;;1.31;70.36;100793.82;126346;1099;104026;-79
2022/02/06 01:02:31;;;;;;;25.90;11.00;;;;;;;1.31;70.15;100791.23;126294;1099;104217;-79
2022/02/06 01:05:03;;;;;;;25.50;11.97;;;;;;;1.31;70.15;100789.58;125361;1099;104217;-79
2022/02/06 01:07:34;;;;;;;23.10;10.40;;;;;;;1.31;70.65;100793.82;126254;1099;111421;-79
2022/02/06 01:10:08;;;;;;;24.37;10.73;;;;;;;1.29;70.52;100785.95;126353;1099;104245;-79
2022/02/06 01:12:43;;;;;;;24.57;11.38;;;;;;;1.27;70.26;100787.52;125555;1099;104175;-79
2022/02/06 01:15:18;;;;;;;22.63;11.00;;;;;;;1.25;70.96;100783.94;126311;1098;104201;-78
2022/02/06 01:17:55;;;;;;;23.05;10.70;;;;;;;1.22;70.72;100783.70;126251;1099;104143;-79
2022/02/06 01:20:32;;;;;;;24.10;11.30;;;;;;;1.19;70.53;100789.52;126312;1099;104143;-79
2022/02/06 01:23:08;;;;;;;27.23;12.13;;;;;;;1.15;70.69;100786.58;125485;1099;104172;-79
2022/02/06 01:25:50;;;;;;;26.80;12.37;;;;;;;1.11;70.80;100776.77;126308;1099;104146;-78
2022/02/06 01:28:29;;;;;;;25.50;11.80;;;;;;;1.08;70.42;100785.20;126268;1099;107034;-79
2022/02/06 01:31:08;;;;;;;25.30;11.67;;;;;;;1.06;70.47;100791.91;126338;1099;104230;-79
2022/02/06 01:33:46;;;;;;;26.37;12.30;;;;;;;1.03;70.86;100782.26;126365;1099;104191;-78
2022/02/06 01:36:26;;;;;;;26.53;11.47;;;;;;;1.01;70.74;100780.33;126278;1099;104225;-79
2022/02/06 01:39:10;;;;;;;25.93;12.23;;;;;;;0.99;70.73;100782.79;126343;1098;104300;-78
2022/02/06 01:41:45;;;;;;;25.20;10.87;;;;;;;0.98;70.55;100778.42;126304;1099;104175;-79
2022/02/06 01:44:35;;;;;;;27.20;11.35;;;;;;;0.97;70.63;100779.19;126353;1099;104196;-79
2022/02/06 02:01:28;;;;;;;23.83;9.70;;;;;;;1.04;70.74;100794.41;125739;1099;104307;-79
2022/02/06 02:04:08;;;;;;;21.30;10.03;;;;;;;1.05;70.61;100806.53;125434;1099;104182;-79
2022/02/06 02:07:02;;;;;;;23.43;10.33;;;;;;;1.04;71.52;100799.58;126239;1099;104409;-79
2022/02/06 02:12:44;;;;;;;24.60;10.53;;;;;;;0.96;70.94;100805.80;125769;1099;104207;-79
2022/02/06 02:24:22;;;;;;;24.57;10.10;;;;;;;0.82;71.51;100811.57;126235;1098;104268;-79
2022/02/06 02:27:12;;;;;;;25.57;10.43;;;;;;;0.80;71.72;100818.31;126340;1099;104322;-79
2022/02/06 02:44:45;;;;;;;21.63;9.10;;;;;;;0.74;71.82;100822.98;126277;1099;104277;-79
2022/02/06 02:47:14;;;;;;;22.00;9.77;;;;;;;0.70;71.29;100817.57;126334;1099;104181;-79
2022/02/06 02:49:52;;;;;;;21.47;8.80;;;;;;;0.68;71.53;100818.22;125367;1099;104302;-79
2022/02/06 02:55:26;;;;;;;21.90;9.00;;;;;;;0.68;71.63;100813.05;126336;1099;104208;-79
2022/02/06 02:58:15;;;;;;;20.70;9.03;;;;;;;0.68;71.46;100813.05;125216;1099;104281;-78
2022/02/06 03:00:54;;;;;;;22.10;8.60;;;;;;;0.67;71.44;100812.16;126311;1099;104152;-79
2022/02/06 03:03:28;;;;;;;21.30;8.30;;;;;;;0.64;71.30;100806.75;126302;1099;104344;-79
2022/02/06 03:06:02;;;;;;;20.03;8.90;;;;;;;0.62;70.92;100803.12;126312;1099;104332;-78
2022/02/06 03:08:35;;;;;;;21.23;9.00;;;;;;;0.63;71.02;100802.35;126220;1099;104239;-78
2022/02/06 03:11:10;;;;;;;20.63;8.37;;;;;;;0.64;71.40;100801.58;126301;1099;109434;-78
2022/02/06 03:13:48;;;;;;;18.43;8.23;;;;;;;0.64;70.84;100798.08;126311;1099;104143;-78
2022/02/06 03:16:24;;;;;;;21.23;9.50;;;;;;;0.64;71.23;100800.66;126299;1099;104211;-78
2022/02/06 03:19:05;;;;;;;18.90;8.57;;;;;;;0.62;71.32;100799.64;125407;1099;104341;-78
2022/02/06 03:21:39;;;;;;;21.23;9.47;;;;;;;0.61;71.12;100796.17;126306;1099;104188;-78
2022/02/06 03:24:20;;;;;;;19.40;8.70;;;;;;;0.60;71.11;100804.69;126312;1099;104191;-78
2022/02/06 03:26:53;;;;;;;18.80;8.57;;;;;;;0.60;71.51;100809.85;126319;1099;104219;-78
2022/02/06 03:29:26;;;;;;;21.53;9.00;;;;;;;0.59;71.09;100813.20;125322;1099;104455;-78
2022/02/06 03:31:58;;;;;;;19.00;8.37;;;;;;;0.56;71.49;100810.37;125626;1099;104214;-79
2022/02/06 03:34:29;;;;;;;20.30;8.90;;;;;;;0.53;70.87;100813.63;126310;1099;104160;-78
2022/02/06 03:37:00;;;;;;;21.10;9.17;;;;;;;0.51;71.37;100819.44;126305;1099;104198;-79
2022/02/06 03:39:35;;;;;;;18.90;8.80;;;;;;;0.49;71.50;100821.90;126286;1099;104155;-79
2022/02/06 03:42:11;;;;;;;21.93;9.03;;;;;;;0.46;71.64;100821.65;126310;1099;104360;-79
2022/02/06 03:44:47;;;;;;;19.10;8.70;;;;;;;0.45;70.97;100821.52;126295;1099;104152;-79
2022/02/06 03:47:20;;;;;;;19.73;8.53;;;;;;;0.44;71.28;100819.74;125703;1099;104679;-79
2022/02/06 03:49:55;;;;;;;23.10;9.43;;;;;;;0.41;71.39;100827.23;126280;1099;105357;-79
2022/02/06 03:52:33;;;;;;;19.53;8.93;;;;;;;0.40;71.00;100828.00;126342;1099;104188;-78
2022/02/06 03:55:06;;;;;;;22.60;9.85;;;;;;;0.39;71.41;100837.44;126341;1098;104171;-79
2022/02/06 03:57:37;;;;;;;20.27;8.17;;;;;;;0.34;70.71;100834.48;126285;1099;104196;-79
2022/02/06 04:00:13;;;;;;;20.87;8.70;;;;;;;0.30;71.27;100841.84;126306;1099;104146;-79
2022/02/06 04:02:45;;;;;;;20.73;8.13;;;;;;;0.28;71.15;100846.88;126313;1099;104258;-79
2022/02/06 04:05:17;;;;;;;20.30;8.60;;;;;;;0.28;71.15;100845.96;126337;1099;104249;-80
2022/02/06 04:07:50;;;;;;;20.23;8.37;;;;;;;0.26;71.40;100853.58;126367;1099;104194;-77
2022/02/06 04:10:21;;;;;;;18.73;8.67;;;;;;;0.25;71.36;100854.37;126220;1099;104156;-79
2022/02/06 04:12:53;;;;;;;21.47;9.30;;;;;;;0.23;71.78;100855.91;126290;1099;104149;-79
2022/02/06 04:15:27;;;;;;;20.60;8.67;;;;;;;0.20;71.00;100854.77;126333;1099;104178;-79
2022/02/06 04:18:10;;;;;;;21.57;9.10;;;;;;;0.17;71.20;100855.40;125614;1099;104544;-79
2022/02/06 04:20:44;;;;;;;19.47;9.00;;;;;;;0.15;71.93;100865.59;126284;1099;104175;-79
2022/02/06 04:23:15;;;;;;;22.63;8.73;;;;;;;0.15;71.03;100875.02;126293;1099;104239;-79
2022/02/06 04:25:46;;;;;;;19.80;8.50;;;;;;;0.11;70.54;100871.30;126345;1099;104233;-79
2022/02/06 04:28:18;;;;;;;19.33;8.90;;;;;;;0.10;71.14;100863.43;125366;1099;104248;-78
2022/02/06 04:30:49;;;;;;;18.20;8.10;;;;;;;0.09;71.53;100872.83;126253;1099;104143;-78
2022/02/06 04:33:20;;;;;;;20.53;8.63;;;;;;;0.09;71.73;100874.52;126321;1099;104124;-79
2022/02/06 04:35:56;;;;;;;17.83;7.30;;;;;;;0.10;71.33;100877.22;126282;1099;104251;-79
2022/02/06 04:38:44;;;;;;;19.77;8.70;;;;;;;0.11;71.54;100873.88;126296;1099;104248;-79
2022/02/06 04:41:44;;;;;;;17.07;8.03;;;;;;;0.14;71.05;100868.05;126292;1099;104226;-79
2022/02/06 04:44:40;;;;;;;21.97;8.37;;;;;;;0.14;71.30;100875.79;126369;1099;104175;-78
2022/02/06 05:15:52;;;;;;;20.03;8.03;;;;;;;-0.08;71.28;100884.34;126098;1098;104165;-79
2022/02/06 05:21:45;;;;;;;20.30;8.60;;;;;;;-0.07;70.91;100893.87;125431;1099;104274;-79
2022/02/06 05:27:30;;;;;;;20.17;8.60;;;;;;;-0.09;71.10;100887.69;125460;1099;104204;-79
2022/02/06 05:30:04;;;;;;;22.07;8.53;;;;;;;-0.08;70.93;100886.00;126334;1099;104618;-79
2022/02/06 05:32:38;;;;;;;21.20;9.55;;;;;;;-0.07;71.48;100890.40;126216;1099;104163;-79
2022/02/06 05:35:10;;;;;;;28.53;11.00;;;;;;;-0.07;71.03;100887.81;125559;1099;104162;-79
2022/02/06 05:37:42;;;;;;;24.00;13.10;;;;;;;-0.06;71.04;100894.80;126344;1099;104156;-79
2022/02/06 05:40:14;;;;;;;25.87;12.40;;;;;;;-0.06;70.76;100894.80;126362;1098;104165;-79
2022/02/06 05:42:46;;;;;;;23.63;10.57;;;;;;;-0.05;70.92;100900.09;126233;1099;104293;-78
2022/02/06 05:45:19;;;;;;;23.57;10.03;;;;;;;-0.04;71.22;100904.45;126148;1099;104742;-78
2022/02/06 05:47:52;;;;;;;23.25;10.55;;;;;;;-0.03;71.09;100906.27;126203;1099;104213;-78
2022/02/06 05:50:23;;;;;;;19.83;10.47;;;;;;;-0.02;71.37;100912.31;126162;1099;104178;-78
2022/02/06 05:52:55;;;;;;;26.13;11.43;;;;;;;-0.03;71.18;100907.95;126119;1099;104149;-78
2022/02/06 05:55:27;;;;;;;21.90;10.70;;;;;;;-0.03;71.48;100910.53;126161;1099;104313;-77
2022/02/06 05:57:58;;;;;;;21.33;9.60;;;;;;;-0.01;71.36;100906.39;125313;1099;104159;-77
2022/02/06 06:00:30;;;;;;;20.37;8.93;;;;;;;-0.01;71.42;100909.86;126322;1099;104165;-79
2022/02/06 06:03:04;;;;;;;20.53;8.87;;;;;;;0.01;71.44;100906.52;126176;1099;104229;-79
2022/02/06 06:05:36;;;;;;;19.70;8.30;;;;;;;0.03;71.15;100904.97;126158;1099;104225;-79
2022/02/06 06:08:08;;;;;;;23.43;9.37;;;;;;;0.06;71.45;100905.22;126193;1099;104159;-79
2022/02/06 06:10:39;;;;;;;19.60;9.30;;;;;;;0.09;71.42;100908.06;126171;1099;104210;-79
2022/02/06 06:13:11;;;;;;;21.30;9.97;;;;;;;0.14;71.13;100899.02;125275;1099;104288;-79
2022/02/06 06:15:42;;;;;;;21.57;9.23;;;;;;;0.19;70.81;100908.07;126253;1099;104197;-78
2022/02/06 06:18:14;;;;;;;22.37;9.00;;;;;;;0.24;71.44;100906.77;125359;1099;104243;-78
2022/02/06 06:20:46;;;;;;;20.43;8.63;;;;;;;0.28;71.26;100914.00;126309;1099;104434;-79
2022/02/06 06:23:18;;;;;;;19.07;8.40;;;;;;;0.32;71.42;100910.88;125651;1099;104168;-79
2022/02/06 06:25:50;;;;;;;21.10;9.00;;;;;;;0.38;71.61;100905.33;126362;1099;104211;-79
2022/02/06 06:28:22;;;;;;;17.03;7.90;;;;;;;0.43;71.01;100909.19;126286;1099;104150;-79
2022/02/06 06:30:55;;;;;;;19.70;8.20;;;;;;;0.54;70.87;100917.81;126346;1098;104191;-78
2022/02/06 06:33:27;;;;;;;21.70;9.93;;;;;;;0.63;71.40;100917.69;126274;1099;104145;-79
2022/02/06 06:35:58;;;;;;;22.07;9.47;;;;;;;0.71;71.61;100917.52;126277;1099;104245;-79
2022/02/06 06:38:32;;;;;;;21.73;10.20;;;;;;;0.81;71.36;100914.02;125308;1099;104210;-78
2022/02/06 06:41:04;;;;;;;21.60;10.58;;;;;;;0.92;71.17;100920.06;126315;1099;104149;-79
2022/02/06 06:43:35;;;;;;;21.53;9.70;;;;;;;1.01;71.30;100923.39;126263;1099;104144;-80
2022/02/06 06:46:07;;;;;;;19.70;8.30;;;;;;;1.12;71.45;100918.16;126330;1099;104345;-79
2022/02/06 06:48:38;;;;;;;20.30;8.90;;;;;;;1.21;71.40;100918.89;126317;1099;104146;-79
2022/02/06 06:51:10;;;;;;;18.23;8.07;;;;;;;1.32;71.40;100924.92;126322;1099;104172;-78
2022/02/06 06:53:44;;;;;;;19.67;7.87;;;;;;;1.41;70.98;100921.37;125354;1099;104149;-79
2022/02/06 06:56:24;;;;;;;20.55;8.50;;;;;;;1.52;70.91;100929.08;126322;1099;104153;-79
2022/02/06 06:58:55;;;;;;;18.63;7.43;;;;;;;1.65;71.26;100929.24;126348;1099;104142;-78
2022/02/06 07:01:45;;;;;;;16.97;7.73;;;;;;;1.77;70.54;100927.61;126291;1099;104184;-78
2022/02/06 07:04:17;;;;;;;17.67;6.33;;;;;;;1.95;71.25;100928.14;125347;1099;104197;-79
2022/02/06 07:06:48;;;;;;;14.77;6.57;;;;;;;2.11;71.13;100922.44;126314;1099;104149;-79
2022/02/06 07:09:19;;;;;;;16.50;7.00;;;;;;;2.26;70.95;100924.38;126337;1099;104159;-79
2022/02/06 07:11:51;;;;;;;15.63;6.30;;;;;;;2.38;70.65;100924.42;126309;1099;104147;-78
2022/02/06 07:14:22;;;;;;;20.57;7.63;;;;;;;2.50;70.55;100920.16;126267;1099;104225;-79
2022/02/06 07:16:53;;;;;;;15.73;6.63;;;;;;;2.59;70.70;100918.25;126343;1099;104754;-79
2022/02/06 07:19:25;;;;;;;15.20;6.57;;;;;;;2.69;70.50;100914.64;126309;1099;104146;-79
2022/02/06 07:21:57;;;;;;;16.60;6.70;;;;;;;2.75;70.87;100911.62;126321;1099;104149;-79
2022/02/06 07:24:29;;;;;;;16.80;7.15;;;;;;;2.82;69.69;100917.36;126281;1099;104204;-78
2022/02/06 07:27:04;;;;;;;16.83;6.60;;;;;;;2.90;69.29;100923.11;126308;1099;104729;-79
2022/02/06 07:29:35;;;;;;;18.90;6.67;;;;;;;2.98;70.05;100915.89;125709;1098;104155;-79
2022/02/06 07:32:08;;;;;;;17.13;6.50;;;;;;;3.07;70.28;100921.75;126343;1099;104239;-79
2022/02/06 07:34:39;;;;;;;18.40;7.37;;;;;;;3.16;69.40;100916.30;125596;1099;102129;-79
2022/02/06 07:37:11;;;;;;;16.43;6.80;;;;;;;3.23;69.49;100923.75;126323;1099;104753;-78
2022/02/06 07:39:42;;;;;;;16.97;6.53;;;;;;;3.31;69.43;100916.52;126266;1099;104219;-79
2022/02/06 07:42:14;;;;;;;15.63;6.83;;;;;;;3.37;68.16;100930.81;126167;1099;104236;-78
2022/02/06 07:44:50;;;;;;;16.23;5.90;;;;;;;3.45;68.90;100920.98;126024;1099;105605;-78
2022/02/06 07:47:23;;;;;;;14.23;5.30;;;;;;;3.57;68.99;100918.37;126099;1099;104255;-77
2022/02/06 07:49:58;;;;;;;13.93;5.43;;;;;;;3.69;69.11;100923.50;125259;1099;104794;-76
2022/02/06 07:52:30;;;;;;;8.47;4.50;;;;;;;3.82;68.59;100913.19;126073;1099;104258;-77
2022/02/06 07:55:03;;;;;;;13.17;4.70;;;;;;;3.96;69.06;100921.93;126047;1099;104143;-77
2022/02/06 07:57:35;;;;;;;11.28;4.15;;;;;;;4.09;67.85;100913.28;126244;1099;104220;-80
2022/02/06 08:00:09;;;;;;;14.47;5.00;;;;;;;4.21;66.90;100913.22;126341;1099;104159;-79
2022/02/06 08:02:44;;;;;;;12.20;4.77;;;;;;;4.31;67.83;100908.72;125613;1099;104242;-79
2022/02/06 08:05:17;;;;;;;12.17;4.50;;;;;;;4.41;66.91;100911.94;125289;1099;104261;-79
2022/02/06 08:07:50;;;;;;;10.13;4.50;;;;;;;4.51;67.73;100919.56;125611;1099;104181;-79
2022/02/06 08:10:22;;;;;;;10.50;4.20;;;;;;;4.61;67.45;100915.86;126339;1099;104174;-78
2022/02/06 08:12:55;;;;;;;10.05;4.10;;;;;;;4.69;67.86;100909.50;126295;1099;104216;-80
2022/02/06 08:15:27;;;;;;;11.73;4.37;;;;;;;4.78;67.32;100904.87;126217;1099;104140;-78
2022/02/06 08:17:58;;;;;;;10.77;4.50;;;;;;;4.89;66.85;100905.56;126289;1099;104254;-78
2022/02/06 08:20:29;;;;;;;8.90;3.90;;;;;;;4.98;67.86;100900.97;126329;1099;104297;-78
2022/02/06 08:23:01;;;;;;;13.47;4.00;;;;;;;5.11;66.50;100905.28;126300;1098;104197;-78
2022/02/06 08:25:33;;;;;;;7.80;3.30;;;;;;;5.22;66.68;100903.36;126329;1099;101665;-78
2022/02/06 08:28:05;;;;;;;8.67;3.13;;;;;;;5.33;65.63;100891.92;126323;1099;104409;-78
2022/02/06 08:30:38;;;;;;;10.63;3.87;;;;;;;5.47;66.07;100904.87;126298;1098;104675;-78
2022/02/06 08:33:09;;;;;;;17.47;4.03;;;;;;;5.57;65.37;100897.74;126357;1099;104159;-78
2022/02/06 08:35:41;;;;;;;8.77;3.03;;;;;;;5.63;65.09;100892.03;126281;1099;104637;-79
2022/02/06 08:38:12;;;;;;;8.60;3.20;;;;;;;5.74;65.28;100898.78;126195;1099;104177;-78
2022/02/06 08:40:44;;;;;;;7.73;2.90;;;;;;;5.84;65.20;100897.63;126166;1099;104264;-78
2022/02/06 08:43:15;;;;;;;8.63;3.20;;;;;;;5.95;64.72;100890.47;126134;1099;104147;-78
2022/02/06 08:45:47;;;;;;;10.50;3.10;;;;;;;6.03;64.19;100884.08;126048;1099;104200;-78
2022/02/06 08:48:18;;;;;;;10.47;3.43;;;;;;;6.10;63.91;100883.62;126101;1099;104593;-78
2022/02/06 08:50:50;;;;;;;7.80;3.55;;;;;;;6.18;64.10;100884.08;126123;1099;104173;-76
2022/02/06 08:53:21;;;;;;;9.93;3.10;;;;;;;6.24;63.58;100883.55;126133;1099;104235;-77
2022/02/06 08:55:53;;;;;;;7.30;3.13;;;;;;;6.32;63.68;100882.28;126025;1099;104192;-77
2022/02/06 08:58:24;;;;;;;11.17;4.10;;;;;;;6.38;62.62;100881.77;126160;1099;104181;-77
2022/02/06 09:00:55;;;;;;;7.93;3.50;;;;;;;6.46;62.19;100875.27;126276;1098;104249;-78
2022/02/06 09:03:27;;;;;;;8.00;3.17;;;;;;;6.51;62.13;100872.94;126340;1099;104198;-79
2022/02/06 09:05:59;;;;;;;7.93;3.23;;;;;;;6.47;61.33;100864.05;125592;1099;104184;-79
2022/02/06 09:08:32;;;;;;;8.53;3.43;;;;;;;6.51;60.88;100868.61;126317;1099;104144;-79
2022/02/06 09:11:04;;;;;;;10.15;3.50;;;;;;;6.50;60.01;100871.13;126301;1099;104147;-79
2022/02/06 09:13:36;;;;;;;8.77;3.47;;;;;;;6.56;61.14;100863.66;126285;1098;104146;-79
2022/02/06 09:16:07;;;;;;;7.70;3.50;;;;;;;6.60;60.85;100868.25;126293;1099;104188;-79
2022/02/06 09:18:39;;;;;;;8.87;3.50;;;;;;;6.62;60.75;100867.55;126292;1099;104181;-79
2022/02/06 09:21:10;;;;;;;11.37;3.63;;;;;;;6.72;60.13;100873.28;126294;1099;104412;-79
2022/02/06 09:23:42;;;;;;;7.80;3.00;;;;;;;6.78;58.69;100868.42;126315;1099;104187;-78
2022/02/06 09:26:13;;;;;;;8.87;3.97;;;;;;;6.84;59.70;100864.44;126246;1099;104248;-78
2022/02/06 09:28:45;;;;;;;9.43;3.73;;;;;;;6.86;58.60;100853.17;126337;1099;104191;-78
2022/02/06 09:31:23;;;;;;;7.93;3.43;;;;;;;6.90;58.62;100857.77;126365;1099;104377;-79
2022/02/06 09:36:25;;;;;;;8.63;3.80;;;;;;;6.91;57.94;100846.53;126210;1099;104172;-79
2022/02/06 09:38:56;;;;;;;8.43;3.50;;;;;;;6.87;57.33;100845.44;126343;1099;104246;-79
2022/02/06 09:41:28;;;;;;;9.80;3.87;;;;;;;6.93;56.98;100845.78;126326;1099;104162;-78
2022/02/06 09:44:00;;;;;;;7.63;3.50;;;;;;;6.95;57.93;100838.03;125293;1099;104373;-79
2022/02/06 09:46:35;;;;;;;7.77;3.57;;;;;;;6.97;57.42;100833.83;126087;1099;104161;-78
2022/02/06 09:49:08;;;;;;;7.77;3.80;;;;;;;6.98;56.68;100822.55;126140;1099;104315;-78
2022/02/06 09:51:40;;;;;;;7.20;3.53;;;;;;;7.07;57.26;100815.23;126154;1099;104223;-78
2022/02/06 09:54:13;;;;;;;10.40;3.73;;;;;;;7.15;57.26;100813.97;126170;1099;104248;-78
2022/02/06 09:56:50;;;;;;;13.73;4.10;;;;;;;7.16;57.17;100815.73;126073;1099;104249;-78
2022/02/06 09:59:23;;;;;;;8.07;3.50;;;;;;;7.16;54.38;100825.29;126333;1099;104365;-79
2022/02/06 10:01:58;;;;;;;7.17;3.63;;;;;;;7.23;56.19;100809.16;126200;1099;104191;-79
2022/02/06 10:04:31;;;;;;;6.97;3.17;;;;;;;7.37;56.52;100807.30;126246;1099;104315;-79
2022/02/06 10:07:07;;;;;;;11.73;4.12;;;;;;;7.40;54.53;100789.15;126278;1099;104259;-79
2022/02/06 10:09:42;;;;;;;10.37;3.90;;;;;;;7.37;54.69;100800.34;126299;1099;104175;-79
2022/02/06 10:12:16;;;;;;;8.27;3.40;;;;;;;7.37;55.02;100794.24;126268;1099;104149;-79
2022/02/06 10:14:48;;;;;;;13.73;4.40;;;;;;;7.48;55.69;100780.03;126364;1099;104152;-80
2022/02/06 10:17:23;;;;;;;8.90;3.83;;;;;;;7.60;55.23;100774.53;126290;1099;104305;-79
2022/02/06 10:19:57;;;;;;;9.00;3.70;;;;;;;7.60;52.30;100774.53;125420;1099;104197;-78
2022/02/06 10:22:38;;;;;;;7.17;3.70;;;;;;;7.62;54.19;100772.00;125442;1099;104197;-79
2022/02/06 10:25:12;;;;;;;6.70;3.50;;;;;;;7.68;54.74;100770.62;126301;1099;104188;-78
2022/02/06 10:28:00;;;;;;;9.83;3.58;;;;;;;7.74;54.84;100764.80;126311;1099;104245;-78
2022/02/06 10:30:43;;;;;;;8.57;3.83;;;;;;;7.77;52.49;100759.73;126326;1099;104179;-79
2022/02/06 10:33:17;;;;;;;5.83;3.25;;;;;;;7.79;53.46;100745.05;126341;1099;104627;-78
2022/02/06 10:35:53;;;;;;;8.38;3.33;;;;;;;7.85;53.46;100740.14;126319;1099;104169;-80
2022/02/06 10:38:26;;;;;;;9.07;3.83;;;;;;;7.94;54.32;100744.02;126220;1099;104313;-79
2022/02/06 10:41:11;;;;;;;8.73;3.80;;;;;;;7.94;52.61;100725.73;125298;1099;104159;-79
2022/02/06 10:43:57;;;;;;;11.95;4.05;;;;;;;7.95;51.83;100730.12;126343;1099;104153;-79
2022/02/06 10:46:30;;;;;;;9.57;4.50;;;;;;;7.98;53.14;100718.13;126320;1099;104159;-78
2022/02/06 10:49:03;;;;;;;13.70;4.43;;;;;;;8.02;52.91;100719.16;126234;1099;104250;-79
2022/02/06 10:51:43;;;;;;;9.63;4.40;;;;;;;7.98;52.38;100705.06;126267;1099;104195;-79
2022/02/06 10:54:16;;;;;;;9.80;4.73;;;;;;;7.90;50.75;100712.52;126333;1099;104640;-79
2022/02/06 10:57:03;;;;;;;10.73;4.27;;;;;;;7.91;51.35;100708.17;126323;1099;104162;-79
2022/02/06 10:59:48;;;;;;;8.37;4.13;;;;;;;7.92;51.27;100702.14;125276;1099;104192;-79
2022/02/06 11:02:26;;;;;;;8.33;4.17;;;;;;;7.96;51.23;100697.95;126298;1099;104258;-80
2022/02/06 11:05:06;;;;;;;8.80;4.63;;;;;;;8.00;52.08;100710.36;126326;1099;104182;-79
2022/02/06 11:07:38;;;;;;;9.60;4.30;;;;;;;8.06;52.04;100694.98;126352;1099;104156;-79
2022/02/06 11:10:15;;;;;;;10.07;4.60;;;;;;;8.05;51.02;100699.29;126249;1099;105476;-78
2022/02/06 11:12:53;;;;;;;9.55;4.65;;;;;;;8.04;50.94;100691.37;126345;1099;104128;-79
2022/02/06 11:15:31;;;;;;;8.77;4.07;;;;;;;8.07;50.73;100688.91;126289;1099;104143;-79
2022/02/06 11:18:09;;;;;;;9.83;4.47;;;;;;;8.03;50.47;100698.33;126284;1099;104665;-80
2022/02/06 11:20:54;;;;;;;10.37;4.43;;;;;;;8.03;50.44;100692.22;126326;1099;104172;-79
2022/02/06 11:23:45;;;;;;;7.10;3.67;;;;;;;8.01;47.37;100673.85;125305;1099;104252;-79
2022/02/06 11:26:18;;;;;;;10.33;4.17;;;;;;;8.01;50.38;100683.39;126360;1099;104171;-79
2022/02/06 11:28:51;;;;;;;12.03;4.37;;;;;;;8.02;50.18;100682.58;125295;1099;104165;-79
2022/02/06 11:31:23;;;;;;;11.50;4.80;;;;;;;8.00;50.00;100673.77;126338;1099;104280;-79
2022/02/06 11:33:54;;;;;;;7.23;3.93;;;;;;;7.96;49.13;100674.44;126283;1099;104150;-79
2022/02/06 11:45:23;;;;;;;11.43;4.33;;;;;;;7.76;49.56;100666.53;126332;1099;103990;-78
2022/02/06 11:47:58;;;;;;;10.60;4.37;;;;;;;7.74;49.15;100661.23;126308;1099;104225;-78
2022/02/06 11:50:32;;;;;;;12.43;4.67;;;;;;;7.73;49.23;100667.26;126232;1099;104174;-78
2022/02/06 11:53:06;;;;;;;10.20;4.27;;;;;;;7.71;49.02;100660.16;126255;1099;104146;-79
2022/02/06 11:55:42;;;;;;;10.70;4.73;;;;;;;7.72;49.84;100656.73;126314;1099;104274;-78
2022/02/06 11:58:29;;;;;;;9.23;4.40;;;;;;;7.71;50.00;100648.02;126274;1099;104277;-79
2022/02/06 12:01:31;;;;;;;12.17;4.43;;;;;;;7.70;49.97;100653.16;126305;1099;104195;-80
2022/02/06 12:04:20;;;;;;;7.60;4.20;;;;;;;7.60;48.98;100641.34;126100;1099;104242;-77
2022/02/06 12:06:57;;;;;;;10.57;4.50;;;;;;;7.56;48.98;100642.91;126132;1099;104149;-77
2022/02/06 12:09:31;;;;;;;19.60;6.80;;;;;;;7.51;49.55;100647.02;126089;1099;104264;-76
2022/02/06 12:12:22;;;;;;;14.93;5.58;;;;;;;7.51;49.33;100633.96;126100;1098;104242;-77
2022/02/06 12:15:26;;;;;;;20.90;7.47;;;;;;;7.48;49.40;100639.03;126137;1099;104181;-77
2022/02/06 12:18:13;;;;;;;17.43;6.67;;;;;;;7.46;48.79;100631.92;126171;1099;104247;-79
2022/02/06 12:20:50;;;;;;;13.23;5.60;;;;;;;7.48;49.12;100638.11;126261;1099;104223;-78
2022/02/06 12:23:42;;;;;;;11.40;4.30;;;;;;;7.48;48.76;100632.89;126321;1099;104153;-80
2022/02/06 12:26:44;;;;;;;9.20;4.20;;;;;;;7.50;48.50;100620.83;126295;1099;104380;-79
2022/02/06 12:29:23;;;;;;;10.53;3.80;;;;;;;7.49;48.57;100632.97;126316;1099;104245;-79
2022/02/06 12:32:03;;;;;;;8.67;3.97;;;;;;;7.48;48.43;100620.75;126254;1099;104143;-79
2022/02/06 12:37:43;;;;;;;6.03;3.70;;;;;;;7.46;47.71;100617.14;126237;1099;104255;-79
2022/02/06 12:40:17;;;;;;;5.63;3.67;;;;;;;7.43;45.48;100622.21;126169;1099;104223;-79
2022/02/06 12:42:56;;;;;;;7.72;3.72;;;;;;;7.44;46.83;100620.52;126309;1099;104178;-79
2022/02/06 12:45:29;;;;;;;8.23;3.67;;;;;;;7.44;47.24;100610.08;126301;1099;104675;-78
2022/02/06 12:48:03;;;;;;;7.93;3.37;;;;;;;7.42;47.26;100610.00;126308;1099;104192;-79
2022/02/06 12:50:36;;;;;;;12.93;4.20;;;;;;;7.40;46.71;100603.78;126261;1099;104156;-79
2022/02/06 12:53:17;;;;;;;7.77;3.30;;;;;;;7.39;45.82;100599.41;126316;1099;104214;-79
2022/02/06 12:55:51;;;;;;;6.27;3.07;;;;;;;7.41;47.49;100592.53;126316;1099;104222;-79
2022/02/06 12:58:31;;;;;;;10.60;3.50;;;;;;;7.44;47.18;100595.30;126320;1099;104162;-79
2022/02/06 13:01:02;;;;;;;7.07;3.43;;;;;;;7.46;47.00;100595.38;125852;1099;104162;-80
2022/02/06 13:03:37;;;;;;;6.90;3.60;;;;;;;7.42;46.92;100583.89;126118;1099;104181;-79
2022/02/06 13:06:13;;;;;;;8.07;3.57;;;;;;;7.40;47.02;100579.41;125406;1098;104179;-79
2022/02/06 13:08:45;;;;;;;7.97;3.33;;;;;;;7.37;46.07;100577.56;126156;1099;104332;-78
2022/02/06 13:11:31;;;;;;;9.60;3.93;;;;;;;7.37;46.79;100569.73;126056;1099;104287;-79
2022/02/06 13:14:04;;;;;;;9.17;3.73;;;;;;;7.34;46.83;100565.23;126191;1099;104146;-78
2022/02/06 13:16:47;;;;;;;6.87;3.30;;;;;;;7.34;46.29;100561.74;125769;1099;104335;-79
2022/02/06 13:19:31;;;;;;;8.43;3.50;;;;;;;7.33;45.99;100558.21;126256;1099;104159;-79
2022/02/06 13:25:23;;;;;;;7.13;3.10;;;;;;;7.32;45.36;100555.53;126025;1099;104628;-78